Terminal Aerodrome Forecast
Issued by NWS

Home | Current Version | Previous Version | Text Only | Print | Product List | Glossary On
Versions: 1 2 3 4 5 6 7 8 9 10 11 12 13 14 15 16 17 18 19 20 21 22 23
000
FTUS42 KFFC 080528
TAFFTY
TAF
KFTY 080528Z 0806/0906 31007KT P6SM FEW015
      TEMPO 0806/0810 BKN015
     FM081000 32007KT P6SM SCT025 BKN070
     FM081400 33010KT P6SM SCT050 BKN100
     FM081600 33012G22KT P6SM BKN120
     FM082300 34009KT P6SM SCT150 BKN250=

USA.gov is the U.S. government's official web portal to all federal, state and local government web resources and services.